Impacts METAR Board INFO
IDs:

KBOS - Boston/Logan Intl, MA, US

Updated at: 2215 UTC 18 Dec 2017
Potential Impact None Slight Moderate High
Time18/10Z 18/11Z 18/12Z 18/13Z 18/14Z 18/15Z 18/16Z 18/17Z 18/18Z 18/19Z 18/20Z 18/21Z 18/22Z
VIS10 10 10 10 10 9 10 10 10 10 10 10 10
CIG60 55 29 26 24 23 27 60 24 21 19 16 25
CoverOVCOVCOVCOVCOVCOVCOVCOVCOVCOVCOVCOVCOVC
FltCatVFRVFRMVFRMVFRMVFRMVFRMVFRVFRMVFRMVFRMVFRMVFRMVFR
WX-----------SN-----SN--------
WDir3603602001700140001300160270
WSpd3 3 3 0 4 0 4 0 0 3 0 5 3
WGst-- -- -- -- -- -- -- -- -- -- -- -- --
Raw hourly METARs
KBOS 180954Z 36003KT 10SM BKN060 OVC070 M05/M14 A3020 RMK AO2 SLP226 T10501144
KBOS 181054Z 36003KT 10SM OVC055 M04/M14 A3020 RMK AO2 SLP225 T10441139
KBOS 181154Z 02003KT 10SM OVC029 M04/M13 A3020 RMK AO2 SLP224 T10391128 11039 21056 56010
KBOS 181254Z 00000KT 10SM OVC026 M03/M11 A3019 RMK AO2 SLP222 T10281111
KBOS 181354Z 17004KT 10SM OVC024 M02/M12 A3018 RMK AO2 SLP218 T10221117
KBOS 181454Z 00000KT 9SM -SN OVC023 M02/M11 A3016 RMK AO2 SNB46 SLP212 PCPN VRY LGT P0000 60000 T10171106 58013
KBOS 181554Z 14004KT 10SM OVC027 M01/M11 A3011 RMK AO2 SNE08 SLP194 P0000 T10111111
KBOS 181705Z 00000KT 10SM FEW025 OVC060 M01/M09 A3007 RMK AO2 T10061094
KBOS 181754Z 00000KT 10SM -SN BKN024 BKN030 OVC048 M01/M07 A3005 RMK AO2 SNB21 SLP176 P0000 60000 T10061072 11006 21039 56036
KBOS 181854Z 13003KT 10SM BKN021 OVC050 00/M06 A3001 RMK AO2 SNE48 PRESFR SLP160 P0000 T00001061
KBOS 181954Z 00000KT 10SM BKN019 OVC031 00/M06 A3000 RMK AO2 SLP157 T00001056
KBOS 182054Z 16005KT 10SM BKN016 OVC027 01/M04 A2996 RMK AO2 PRESFR SLP146 60000 T00061044 56030
KBOS 182154Z 27003KT 10SM SCT014 BKN025 OVC055 02/M04 A2997 RMK AO2 SLP147 T00171039